createdAt,value
2023-11-25T00:00:14.579Z,12.33
2023-11-25T00:03:02.686Z,12.31
2023-11-25T00:05:52.108Z,12.36
2023-11-25T00:08:40.140Z,12.34
2023-11-25T00:11:30.097Z,12.43
2023-11-25T00:14:18.152Z,12.43
2023-11-25T00:17:06.418Z,12.41
2023-11-25T00:19:54.471Z,12.46
2023-11-25T00:22:43.710Z,12.54
2023-11-25T00:25:34.565Z,12.38
2023-11-25T00:28:24.143Z,12.38
2023-11-25T00:31:12.173Z,12.65
2023-11-25T00:33:59.986Z,12.65
2023-11-25T00:36:48.129Z,12.66
2023-11-25T00:39:37.667Z,12.61
2023-11-25T00:42:25.737Z,12.66
2023-11-25T00:45:16.132Z,12.73
2023-11-25T00:48:04.366Z,12.69
2023-11-25T00:50:52.309Z,12.70
2023-11-25T00:53:40.464Z,12.75
2023-11-25T00:56:29.782Z,12.88
2023-11-25T00:59:17.623Z,12.96
2023-11-25T01:02:06.851Z,12.96
2023-11-25T01:04:54.790Z,12.92
2023-11-25T01:07:42.863Z,12.88
2023-11-25T01:10:30.746Z,12.87
2023-11-25T01:13:20.003Z,12.87
2023-11-25T01:16:17.979Z,12.89
2023-11-25T01:19:06.219Z,12.86
2023-11-25T01:21:54.126Z,12.83
2023-11-25T01:24:42.138Z,12.80
2023-11-25T01:27:30.096Z,12.85
2023-11-25T01:30:21.236Z,12.81
2023-11-25T01:33:09.933Z,12.86
2023-11-25T01:35:58.154Z,12.83
2023-11-25T01:38:46.139Z,12.87
2023-11-25T01:41:34.130Z,12.80
2023-11-25T01:44:23.465Z,12.86
2023-11-25T01:47:14.050Z,12.80
2023-11-25T01:50:03.893Z,12.84
2023-11-25T01:52:54.614Z,12.70
2023-11-25T01:55:43.156Z,12.80
2023-11-25T01:58:32.194Z,12.78
2023-11-25T02:01:21.539Z,12.74
2023-11-25T02:04:11.632Z,12.76
2023-11-25T02:07:00.017Z,12.71
2023-11-25T02:09:47.932Z,12.76
2023-11-25T02:12:39.295Z,12.70
2023-11-25T02:15:27.302Z,12.32
2023-11-25T02:18:17.951Z,12.69
2023-11-25T02:21:08.485Z,12.73
2023-11-25T02:23:57.723Z,12.69
2023-11-25T02:26:45.795Z,12.57
2023-11-25T02:29:34.290Z,12.57
2023-11-25T02:32:22.556Z,12.62
2023-11-25T02:35:10.956Z,12.63
2023-11-25T02:37:59.813Z,12.66
2023-11-25T02:40:50.362Z,12.71
2023-11-25T02:43:38.330Z,12.70
2023-11-25T02:46:26.185Z,12.64
2023-11-25T02:49:14.174Z,12.59
2023-11-25T02:52:02.434Z,12.67
2023-11-25T02:54:50.816Z,12.73
2023-11-25T02:57:44.525Z,12.66
2023-11-25T03:00:38.024Z,12.59
2023-11-25T03:03:26.141Z,12.44
2023-11-25T03:06:14.365Z,12.40
2023-11-25T03:09:02.549Z,12.26
2023-11-25T03:11:50.649Z,12.26
2023-11-25T03:14:39.935Z,12.23
2023-11-25T03:17:29.445Z,12.34
2023-11-25T03:20:18.022Z,12.39
2023-11-25T03:23:05.958Z,12.33
2023-11-25T03:25:54.218Z,12.30
2023-11-25T03:28:42.606Z,12.31
2023-11-25T03:31:32.158Z,12.43
2023-11-25T03:34:20.270Z,12.42
2023-11-25T03:37:09.812Z,12.44
2023-11-25T03:39:57.891Z,12.57
2023-11-25T03:42:46.140Z,12.61
2023-11-25T03:45:34.310Z,12.63
2023-11-25T03:48:23.661Z,12.70
2023-11-25T03:51:12.791Z,12.64
2023-11-25T03:54:00.668Z,12.73
2023-11-25T03:56:48.770Z,12.63
2023-11-25T03:59:36.802Z,12.81
2023-11-25T04:02:24.959Z,12.79
2023-11-25T04:05:15.050Z,12.73
2023-11-25T04:08:02.977Z,12.81
2023-11-25T04:10:52.303Z,12.77
2023-11-25T04:13:40.291Z,12.83
2023-11-25T04:16:28.261Z,12.89
2023-11-25T04:19:17.401Z,12.92
2023-11-25T04:22:07.121Z,12.92
2023-11-25T04:24:55.107Z,12.82
2023-11-25T04:27:43.351Z,12.93
2023-11-25T04:30:31.475Z,12.85
2023-11-25T04:33:19.824Z,12.93
2023-11-25T04:36:09.255Z,12.84
2023-11-25T04:39:00.392Z,12.85
2023-11-25T04:41:49.455Z,12.86
2023-11-25T04:44:38.779Z,12.86
2023-11-25T04:47:27.654Z,12.78
2023-11-25T04:50:16.555Z,12.77
2023-11-25T04:53:04.746Z,12.82
2023-11-25T04:55:54.354Z,12.85
2023-11-25T04:58:42.884Z,12.79
2023-11-25T05:01:31.372Z,12.86
2023-11-25T05:04:19.554Z,12.94
2023-11-25T05:07:07.522Z,12.87
2023-11-25T05:09:55.485Z,12.87
2023-11-25T05:12:46.167Z,12.80
2023-11-25T05:15:34.511Z,12.75
2023-11-25T05:18:23.038Z,12.85
2023-11-25T05:21:11.967Z,12.78
2023-11-25T05:23:59.847Z,12.69
2023-11-25T05:26:47.786Z,12.79
2023-11-25T05:29:37.132Z,12.83
2023-11-25T05:32:25.433Z,12.83
2023-11-25T05:35:14.392Z,12.77
2023-11-25T05:38:02.606Z,12.73
2023-11-25T05:40:50.616Z,12.71
2023-11-25T05:43:40.477Z,12.77
2023-11-25T05:46:30.197Z,12.74
2023-11-25T05:49:18.561Z,12.79
2023-11-25T05:52:06.897Z,12.70
2023-11-25T05:54:56.943Z,12.76
2023-11-25T05:57:45.773Z,12.80
2023-11-25T06:00:33.787Z,12.84
2023-11-25T06:03:24.555Z,12.85
2023-11-25T06:06:14.069Z,12.82
2023-11-25T06:09:02.081Z,12.81
2023-11-25T06:11:52.396Z,12.77
2023-11-25T06:14:40.362Z,12.80
2023-11-25T06:17:28.594Z,12.77
2023-11-25T06:20:18.408Z,12.87
2023-11-25T06:23:06.367Z,13.01
2023-11-25T06:25:54.605Z,13.03
2023-11-25T06:28:44.026Z,12.80
2023-11-25T06:31:32.992Z,13.00
2023-11-25T06:34:21.238Z,12.98
2023-11-25T06:37:11.004Z,13.07
2023-11-25T06:39:59.142Z,13.00
2023-11-25T06:42:47.102Z,13.07
2023-11-25T06:45:35.898Z,12.92
2023-11-25T06:48:25.160Z,13.15
2023-11-25T06:51:13.451Z,13.16
2023-11-25T06:54:02.875Z,13.17
2023-11-25T06:56:56.342Z,13.15
2023-11-25T06:59:46.893Z,13.14
2023-11-25T07:02:35.094Z,13.11
2023-11-25T07:05:23.338Z,13.19
2023-11-25T07:08:11.984Z,13.11
2023-11-25T07:11:06.225Z,13.25
2023-11-25T07:13:55.366Z,13.18
2023-11-25T07:16:43.529Z,13.25
2023-11-25T07:19:31.631Z,13.29
2023-11-25T07:22:21.152Z,13.25
2023-11-25T07:25:13.255Z,13.35
2023-11-25T07:28:02.677Z,13.41
2023-11-25T07:30:51.008Z,13.52
2023-11-25T07:33:39.514Z,13.49
2023-11-25T07:36:27.537Z,13.49
2023-11-25T07:39:20.903Z,13.58
2023-11-25T07:42:09.633Z,13.53
2023-11-25T07:44:59.126Z,13.58
2023-11-25T07:47:47.618Z,13.60
2023-11-25T07:50:36.291Z,13.69
2023-11-25T07:53:24.702Z,13.74
2023-11-25T07:56:12.735Z,13.71
2023-11-25T07:59:03.082Z,13.64
2023-11-25T08:01:54.524Z,13.62
2023-11-25T08:04:42.842Z,13.78
2023-11-25T08:07:30.847Z,13.73
2023-11-25T08:10:19.260Z,13.73
2023-11-25T08:13:07.199Z,13.76
2023-11-25T08:15:56.590Z,13.65
2023-11-25T08:18:47.280Z,13.76
2023-11-25T08:21:35.267Z,13.76
2023-11-25T08:24:24.402Z,13.79
2023-11-25T08:27:12.449Z,13.74
2023-11-25T08:30:00.355Z,13.75
2023-11-25T08:32:48.833Z,13.81
2023-11-25T08:35:39.982Z,13.84
2023-11-25T08:38:28.358Z,13.88
2023-11-25T08:41:18.109Z,13.83
2023-11-25T08:44:07.893Z,13.91
2023-11-25T08:46:58.028Z,13.98
2023-11-25T08:49:46.782Z,14.02
2023-11-25T08:52:40.243Z,14.03
2023-11-25T08:55:28.492Z,14.04
2023-11-25T08:58:16.294Z,14.08
2023-11-25T09:01:06.063Z,14.13
2023-11-25T09:03:53.975Z,14.10
2023-11-25T09:06:42.417Z,14.14
2023-11-25T09:09:31.810Z,13.91
2023-11-25T09:12:20.813Z,13.37
2023-11-25T09:15:10.250Z,13.30
2023-11-25T09:17:58.268Z,12.99
2023-11-25T09:20:46.380Z,12.49
2023-11-25T09:23:35.039Z,12.27
2023-11-25T09:26:25.806Z,11.95
2023-11-25T09:29:13.670Z,11.95
2023-11-25T09:32:01.699Z,11.94
2023-11-25T09:34:52.040Z,11.72
2023-11-25T09:37:40.239Z,11.56
2023-11-25T09:40:30.694Z,11.46
2023-11-25T09:43:22.474Z,11.48
2023-11-25T09:46:10.749Z,11.24
2023-11-25T09:48:58.681Z,11.24
2023-11-25T09:51:48.985Z,11.22
2023-11-25T09:54:37.514Z,11.22
2023-11-25T09:57:33.430Z,11.12
2023-11-25T10:00:23.635Z,11.14
2023-11-25T10:03:15.162Z,10.76
2023-11-25T10:06:03.666Z,10.85
2023-11-25T10:08:51.834Z,10.82
2023-11-25T10:11:43.979Z,10.69
2023-11-25T10:14:32.636Z,10.52
2023-11-25T10:17:23.135Z,10.65
2023-11-25T10:20:11.735Z,10.51
2023-11-25T10:22:59.884Z,10.43
2023-11-25T10:25:48.128Z,10.41
2023-11-25T10:28:37.667Z,10.31
2023-11-25T10:31:28.927Z,10.18
2023-11-25T10:34:18.408Z,10.23
2023-11-25T10:37:07.179Z,10.05
2023-11-25T10:39:55.397Z,10.09
2023-11-25T10:42:44.404Z,10.20
2023-11-25T10:45:33.548Z,10.08
2023-11-25T10:48:22.026Z,9.96
2023-11-25T10:51:12.636Z,9.67
2023-11-25T10:54:01.668Z,9.50
2023-11-25T10:56:50.356Z,9.28
2023-11-25T10:59:41.191Z,9.29
2023-11-25T11:02:33.499Z,8.85
2023-11-25T11:05:29.769Z,8.63
2023-11-25T11:08:26.929Z,9.05
2023-11-25T11:11:18.843Z,9.03
2023-11-25T11:14:14.069Z,9.02
2023-11-25T11:17:11.011Z,8.96
2023-11-25T11:20:01.616Z,8.71
2023-11-25T11:22:50.355Z,9.03
2023-11-25T11:25:49.087Z,8.87
2023-11-25T11:28:45.202Z,8.75
2023-11-25T11:32:08.720Z,8.67
2023-11-25T11:34:57.733Z,8.59
2023-11-25T11:37:50.120Z,8.45
2023-11-25T11:40:39.747Z,8.33
2023-11-25T11:43:30.124Z,8.43
2023-11-25T11:46:18.117Z,8.41
2023-11-25T11:49:07.728Z,8.26
2023-11-25T11:52:02.656Z,8.53
2023-11-25T11:54:50.824Z,8.56
2023-11-25T11:58:04.776Z,8.49
2023-11-25T12:00:56.630Z,8.36
2023-11-25T12:03:44.832Z,8.33
2023-11-25T12:06:32.954Z,8.33
2023-11-25T12:09:20.995Z,8.47
2023-11-25T12:12:09.391Z,8.14
2023-11-25T12:14:58.797Z,8.17
2023-11-25T12:17:47.113Z,8.16
2023-11-25T12:20:35.280Z,7.97
2023-11-25T12:23:28.278Z,8.04
2023-11-25T12:26:24.447Z,8.35
2023-11-25T12:29:13.082Z,8.32
2023-11-25T12:32:03.057Z,8.31
2023-11-25T12:34:50.851Z,8.19
2023-11-25T12:37:38.778Z,8.22
2023-11-25T12:40:28.211Z,8.08
2023-11-25T12:43:16.131Z,8.14
2023-11-25T12:46:11.842Z,7.98
2023-11-25T12:49:08.857Z,8.03
2023-11-25T12:51:57.955Z,7.67
2023-11-25T12:54:46.733Z,8.03
2023-11-25T12:57:35.033Z,7.98
2023-11-25T13:00:23.892Z,8.01
2023-11-25T13:03:12.074Z,7.97
2023-11-25T13:06:02.191Z,8.00
2023-11-25T13:08:50.641Z,7.92
2023-11-25T13:11:38.544Z,7.92
2023-11-25T13:14:26.748Z,7.98
2023-11-25T13:17:14.727Z,8.12
2023-11-25T13:20:02.837Z,7.97
2023-11-25T13:22:52.222Z,7.97
2023-11-25T13:25:40.502Z,7.78
2023-11-25T13:28:28.750Z,7.88
2023-11-25T13:31:16.753Z,8.01
2023-11-25T13:34:07.444Z,8.09
2023-11-25T13:36:55.324Z,8.19
2023-11-25T13:39:45.133Z,8.11
2023-11-25T13:42:34.332Z,8.12
2023-11-25T13:45:22.200Z,8.42
2023-11-25T13:48:11.867Z,8.38
2023-11-25T13:50:59.788Z,8.13
2023-11-25T13:53:47.897Z,8.34
2023-11-25T13:56:37.126Z,8.11
2023-11-25T13:59:25.171Z,8.23
2023-11-25T14:02:13.269Z,8.35
2023-11-25T14:05:01.331Z,8.09
2023-11-25T14:07:50.501Z,8.27
2023-11-25T14:10:39.592Z,8.07
2023-11-25T14:13:32.159Z,7.97
2023-11-25T14:16:20.554Z,8.12
2023-11-25T14:19:08.653Z,8.05
2023-11-25T14:21:56.797Z,7.96
2023-11-25T14:24:44.776Z,8.34
2023-11-25T14:27:35.207Z,8.35
2023-11-25T14:30:29.740Z,8.05
2023-11-25T14:33:17.854Z,7.83
2023-11-25T14:36:06.563Z,8.22
2023-11-25T14:38:54.591Z,8.32
2023-11-25T14:41:42.507Z,8.44
2023-11-25T14:44:30.613Z,8.46
2023-11-25T14:47:20.203Z,8.13
2023-11-25T14:50:12.294Z,8.17
2023-11-25T14:53:01.043Z,7.98
2023-11-25T14:55:51.578Z,7.93
2023-11-25T14:58:39.699Z,7.97
2023-11-25T15:01:27.961Z,7.68
2023-11-25T15:04:17.710Z,7.87
2023-11-25T15:07:06.131Z,8.15
2023-11-25T15:09:54.445Z,7.66
2023-11-25T15:12:42.304Z,8.13
2023-11-25T15:15:30.448Z,7.60
2023-11-25T15:18:18.541Z,7.53
2023-11-25T15:21:08.826Z,7.66
2023-11-25T15:23:57.480Z,7.35
2023-11-25T15:26:45.340Z,7.66
2023-11-25T15:29:33.550Z,8.02
2023-11-25T15:32:21.527Z,7.86
2023-11-25T15:35:10.576Z,7.91
2023-11-25T15:37:59.903Z,7.43
2023-11-25T15:40:48.314Z,7.51
2023-11-25T15:43:37.664Z,7.13
2023-11-25T15:46:25.826Z,7.11
2023-11-25T15:49:14.088Z,7.35
2023-11-25T15:52:02.054Z,7.13
2023-11-25T15:54:51.817Z,7.30
2023-11-25T15:57:39.976Z,7.18
2023-11-25T16:00:28.641Z,7.27
2023-11-25T16:03:17.967Z,6.95
2023-11-25T16:06:07.161Z,7.04
2023-11-25T16:08:55.154Z,6.93
2023-11-25T16:11:44.407Z,7.18
2023-11-25T16:14:32.446Z,6.83
2023-11-25T16:17:21.821Z,7.18
2023-11-25T16:20:11.383Z,7.37
2023-11-25T16:23:00.143Z,7.17
2023-11-25T16:25:48.230Z,7.06
2023-11-25T16:28:38.126Z,7.17
2023-11-25T16:31:26.304Z,7.15
2023-11-25T16:34:14.459Z,7.36
2023-11-25T16:37:02.687Z,6.60
2023-11-25T16:39:50.620Z,6.68
2023-11-25T16:42:38.953Z,6.49
2023-11-25T16:45:28.317Z,7.08
2023-11-25T16:48:16.254Z,6.77
2023-11-25T16:51:05.349Z,6.44
2023-11-25T16:53:53.405Z,6.42
2023-11-25T16:56:41.500Z,6.82
2023-11-25T16:59:29.668Z,6.68
2023-11-25T17:02:19.602Z,6.33
2023-11-25T17:05:09.315Z,6.22
2023-11-25T17:07:57.393Z,6.42
2023-11-25T17:10:46.182Z,6.59
2023-11-25T17:13:34.290Z,6.86
2023-11-25T17:16:26.905Z,6.47
2023-11-25T17:19:16.378Z,6.70
2023-11-25T17:22:05.165Z,6.88
2023-11-25T17:24:53.448Z,6.39
2023-11-25T17:27:41.405Z,6.93
2023-11-25T17:30:30.129Z,7.03
2023-11-25T17:33:18.272Z,7.10
2023-11-25T17:36:08.414Z,6.50
2023-11-25T17:38:56.290Z,6.51
2023-11-25T17:41:45.046Z,6.32
2023-11-25T17:44:34.133Z,7.07
2023-11-25T17:47:22.861Z,6.96
2023-11-25T17:50:12.903Z,7.11
2023-11-25T17:53:09.708Z,6.38
2023-11-25T17:56:03.001Z,6.70
2023-11-25T17:58:51.422Z,6.67
2023-11-25T18:01:39.840Z,6.76
2023-11-25T18:04:28.001Z,7.12
2023-11-25T18:07:16.343Z,7.12
2023-11-25T18:10:07.242Z,7.11
2023-11-25T18:12:56.345Z,6.57
2023-11-25T18:15:46.064Z,7.14
2023-11-25T18:18:34.407Z,7.14
2023-11-25T18:21:22.563Z,6.60
2023-11-25T18:24:11.263Z,6.33
2023-11-25T18:27:00.756Z,6.40
2023-11-25T18:29:48.920Z,6.32
2023-11-25T18:32:37.739Z,6.82
2023-11-25T18:35:26.390Z,6.86
2023-11-25T18:38:15.050Z,7.07
2023-11-25T18:41:07.642Z,6.73
2023-11-25T18:43:57.226Z,6.63
2023-11-25T18:46:47.759Z,6.66
2023-11-25T18:49:36.088Z,6.50
2023-11-25T18:52:25.403Z,6.24
2023-11-25T18:55:13.794Z,5.84
2023-11-25T18:58:01.917Z,6.04
2023-11-25T19:00:51.975Z,6.12
2023-11-25T19:03:40.360Z,6.88
2023-11-25T19:06:29.423Z,6.69
2023-11-25T19:09:18.757Z,6.36
2023-11-25T19:12:12.222Z,6.54
2023-11-25T19:15:00.833Z,6.21
2023-11-25T19:17:50.756Z,6.14
2023-11-25T19:20:39.523Z,5.66
2023-11-25T19:23:27.967Z,5.39
2023-11-25T19:26:16.809Z,5.90
2023-11-25T19:29:05.536Z,5.86
2023-11-25T19:31:55.327Z,5.37
2023-11-25T19:34:45.307Z,5.56
2023-11-25T19:37:33.667Z,5.26
2023-11-25T19:40:24.824Z,4.91
2023-11-25T19:43:13.183Z,5.14
2023-11-25T19:46:01.684Z,5.04
2023-11-25T19:48:50.214Z,4.91
2023-11-25T19:51:39.904Z,4.86
2023-11-25T19:54:28.202Z,4.92
2023-11-25T19:57:16.623Z,5.72
2023-11-25T20:00:06.458Z,4.63
2023-11-25T20:02:55.017Z,4.68
2023-11-25T20:05:43.394Z,4.53
2023-11-25T20:08:33.229Z,4.93
2023-11-25T20:11:21.313Z,4.57
2023-11-25T20:14:09.644Z,4.67
2023-11-25T20:16:58.636Z,4.21
2023-11-25T20:19:50.176Z,4.27
2023-11-25T20:22:38.455Z,4.46
2023-11-25T20:25:28.027Z,4.03
2023-11-25T20:28:16.035Z,4.03
2023-11-25T20:31:04.431Z,4.29
2023-11-25T20:33:52.993Z,3.97
2023-11-25T20:36:41.233Z,4.08
2023-11-25T20:39:29.779Z,3.92
2023-11-25T20:42:20.018Z,3.35
2023-11-25T20:45:09.197Z,3.38
2023-11-25T20:47:57.275Z,2.89
2023-11-25T20:50:45.317Z,2.41
2023-11-25T20:53:33.264Z,2.72
2023-11-25T20:56:21.495Z,2.34
2023-11-25T20:59:10.901Z,2.23
2023-11-25T21:01:59.092Z,2.23
2023-11-25T21:04:47.384Z,2.69
2023-11-25T21:07:35.266Z,2.09
2023-11-25T21:10:23.268Z,2.05
2023-11-25T21:13:11.360Z,1.65
2023-11-25T21:16:01.313Z,1.52
2023-11-25T21:18:49.221Z,1.10
2023-11-25T21:21:37.400Z,1.62
2023-11-25T21:24:25.465Z,1.31
2023-11-25T21:27:13.264Z,1.09
2023-11-25T21:30:01.143Z,1.30
2023-11-25T21:32:50.987Z,1.15
2023-11-25T21:35:39.272Z,1.27
2023-11-25T21:38:31.358Z,1.13
2023-11-25T21:41:19.221Z,1.52
2023-11-25T21:44:07.558Z,1.16
2023-11-25T21:46:55.940Z,1.15
2023-11-25T21:49:45.464Z,1.26
2023-11-25T21:52:36.296Z,1.45
2023-11-25T21:55:25.552Z,1.01
2023-11-25T21:58:15.882Z,0.85
2023-11-25T22:01:05.271Z,0.83
2023-11-25T22:03:53.442Z,1.00
2023-11-25T22:06:42.909Z,0.68
2023-11-25T22:09:31.834Z,0.85
2023-11-25T22:12:19.754Z,1.05
2023-11-25T22:15:08.661Z,1.02
2023-11-25T22:17:56.776Z,0.79
2023-11-25T22:20:44.734Z,0.56
2023-11-25T22:23:34.477Z,0.87
2023-11-25T22:26:32.986Z,0.90
2023-11-25T22:29:21.554Z,0.79
2023-11-25T22:32:10.753Z,0.72
2023-11-25T22:34:58.744Z,0.42
2023-11-25T22:37:46.907Z,0.92
2023-11-25T22:40:36.293Z,0.80
2023-11-25T22:43:24.373Z,0.55
2023-11-25T22:46:12.418Z,0.67
2023-11-25T22:49:00.600Z,0.59
2023-11-25T22:51:49.001Z,0.88
2023-11-25T22:54:37.288Z,0.85
2023-11-25T22:57:27.851Z,0.58
2023-11-25T23:00:29.141Z,0.42
2023-11-25T23:03:17.377Z,0.44
2023-11-25T23:06:09.580Z,0.75
2023-11-25T23:08:57.475Z,0.43
2023-11-25T23:11:45.789Z,0.55
2023-11-25T23:14:35.350Z,0.40
2023-11-25T23:17:23.227Z,0.68
2023-11-25T23:20:12.813Z,0.67
2023-11-25T23:23:00.880Z,0.58
2023-11-25T23:25:49.769Z,0.50
2023-11-25T23:28:38.016Z,0.44
2023-11-25T23:31:28.079Z,0.56
2023-11-25T23:34:16.235Z,0.67
2023-11-25T23:37:04.056Z,0.82
2023-11-25T23:39:52.025Z,0.57
2023-11-25T23:42:40.479Z,0.65
2023-11-25T23:45:28.556Z,0.57
2023-11-25T23:48:18.802Z,0.60
2023-11-25T23:51:08.042Z,0.69
2023-11-25T23:53:56.172Z,-0.03
2023-11-25T23:56:44.484Z,0.59
2023-11-25T23:59:32.542Z,0.45
